Pagina principale
METAR-TAF:

METAR-TAF

Aeroporti :

Rundu, Namibia

latitudine: 17-57-20S, longitudine: 019-43-25E, altezza: 1106 m

METAR: mancante

Ora: 09:52 (07:52 UTC)

Previsione

Il bollettino è stato emesso 2 ore e 52 minuti fa, alle 05:00 UTC
Previsione valida dal 22 alle 06 UTC al 22 alle 15 UTC
Vento 7 kt da sud/sud-est
Visibilità 10 km o più
Nuvoloso ad un'altezza di 2000 ft
pioggia debole
Evoluzione graduale
dal 22 alle 08 UTC al 22 alle 10 UTC
Nubi sparse ad un'altezza di 4000 ft
Evoluzione graduale
dal 22 alle 09 UTC al 22 alle 11 UTC
Vento 10 kt da est
Nuvoloso ad un'altezza di 4000 ft, Cumulo congesto.

TAF: FYRU 220500Z 2206/2215 15007KT 9999 -RA BKN020 BECMG 2208/2210 NSW SCT040 BECMG 2209/2211 09010KT BKN040TCU

Osservazioni e previsioni meteorologiche di più di 4000 aeroporti (messaggi METAR e TAF).

Le stazioni disponibili sono rappresentate dai dischi gialli e rossi sulla carta.

Puntare il mouse per vedere il nome della stazione.

Clicca sopra per visualizzare le osservazioni e previsioni meteorologiche.

Per cambiare la mappa : fare clic sui pulsanti verdi con una croce nera per ingrandire, il pulsante verde con un trattino per diminuire, o sulla freccia verde per le mappe adiacenti.


METAR-TAF: